Time;durP1;ratioP1;P1;durP2;ratioP2;P2;SDS_P1;SDS_P2;PMS_P1;PMS_P2;Temp;Humidity;BMP_temperature;BMP_pressure;BME280_temperature;BME280_humidity;BME280_pressure;Samples;Min_cycle;Max_cycle;Signal;HPM_P1;HPM_P2
2022/11/14 00:02:15;;;;;;;11.02;8.05;;;15.20;81.60;;;;;;5038830;28;20396;-82
2022/11/14 00:04:44;;;;;;;11.15;8.32;;;15.20;81.60;;;;;;5054342;28;20030;-80
2022/11/14 00:07:10;;;;;;;11.55;8.27;;;15.20;81.70;;;;;;5055090;28;20511;-80
2022/11/14 00:09:37;;;;;;;11.73;8.55;;;15.20;81.80;;;;;;5038994;28;20033;-80
2022/11/14 00:12:03;;;;;;;12.05;8.18;;;15.20;81.80;;;;;;5037660;28;20111;-79
2022/11/14 00:14:28;;;;;;;12.35;8.63;;;15.20;81.80;;;;;;5038116;28;20467;-80
2022/11/14 00:16:54;;;;;;;12.15;8.85;;;15.10;81.80;;;;;;5056470;28;20029;-80
2022/11/14 00:19:19;;;;;;;12.82;8.75;;;15.20;81.80;;;;;;5056507;28;20025;-80
2022/11/14 00:21:45;;;;;;;12.10;8.93;;;15.20;81.90;;;;;;5056555;28;20028;-79
2022/11/14 00:24:11;;;;;;;12.50;8.88;;;15.10;81.80;;;;;;5037910;28;20075;-79
2022/11/14 00:26:36;;;;;;;12.00;8.38;;;15.10;81.80;;;;;;5038200;28;20515;-79
2022/11/14 00:29:02;;;;;;;12.10;8.65;;;15.10;81.80;;;;;;5036461;28;20480;-79
2022/11/14 00:31:27;;;;;;;11.02;8.00;;;15.10;81.90;;;;;;5054170;28;20025;-79
2022/11/14 00:33:53;;;;;;;11.70;8.57;;;15.20;81.90;;;;;;5037060;28;20028;-79
2022/11/14 00:36:18;;;;;;;12.20;8.73;;;15.00;81.80;;;;;;5037160;28;20165;-79
2022/11/14 00:38:44;;;;;;;12.60;8.90;;;15.10;81.80;;;;;;5037338;28;20032;-80
2022/11/14 00:41:09;;;;;;;11.88;8.68;;;15.10;81.90;;;;;;5038008;28;20029;-81
2022/11/14 00:43:35;;;;;;;12.73;8.75;;;15.10;81.80;;;;;;5039193;28;20029;-80
2022/11/14 00:46:00;;;;;;;13.73;9.68;;;15.10;81.80;;;;;;5055948;28;20051;-79
2022/11/14 00:48:26;;;;;;;12.10;8.77;;;15.10;81.70;;;;;;5038580;28;20028;-81
2022/11/14 00:50:51;;;;;;;12.02;8.73;;;15.10;81.70;;;;;;5038855;28;20029;-80
2022/11/14 00:53:17;;;;;;;12.98;9.27;;;15.30;81.70;;;;;;5036726;28;20057;-79
2022/11/14 00:55:42;;;;;;;12.70;8.77;;;15.20;81.60;;;;;;5055467;28;20032;-81
2022/11/14 00:58:08;;;;;;;11.38;8.27;;;15.20;81.60;;;;;;5038220;28;20033;-80
2022/11/14 01:00:34;;;;;;;12.68;8.60;;;15.20;81.60;;;;;;5055251;28;20100;-80
2022/11/14 01:03:00;;;;;;;12.27;8.82;;;15.20;81.50;;;;;;5053087;28;20042;-80
2022/11/14 01:05:26;;;;;;;13.50;9.25;;;15.20;81.40;;;;;;5075609;28;20024;-80
2022/11/14 01:07:52;;;;;;;12.88;9.32;;;15.30;81.50;;;;;;5075887;28;20032;-80
2022/11/14 01:10:18;;;;;;;12.48;8.88;;;15.20;81.40;;;;;;5057158;28;20115;-81
2022/11/14 01:12:44;;;;;;;12.80;8.95;;;15.20;81.50;;;;;;5057505;28;20362;-80
2022/11/14 01:15:09;;;;;;;12.57;9.07;;;15.20;81.50;;;;;;5055393;28;20035;-81
2022/11/14 01:17:35;;;;;;;12.07;9.00;;;15.10;81.50;;;;;;5054962;28;20077;-80
2022/11/14 01:20:01;;;;;;;12.50;8.95;;;15.20;81.60;;;;;;5053789;28;20037;-80
2022/11/14 01:22:28;;;;;;;12.95;9.07;;;15.10;81.60;;;;;;5053908;28;20017;-80
2022/11/14 01:24:57;;;;;;;12.25;8.85;;;15.10;81.70;;;;;;5055280;28;20067;-81
2022/11/14 01:27:23;;;;;;;12.75;9.02;;;15.10;81.70;;;;;;5038360;28;20031;-80
2022/11/14 01:29:48;;;;;;;12.98;9.02;;;15.10;81.70;;;;;;5054922;28;20025;-80
2022/11/14 01:32:14;;;;;;;11.95;8.68;;;15.10;81.70;;;;;;5037682;28;20511;-79
2022/11/14 01:34:39;;;;;;;12.23;9.07;;;15.10;81.70;;;;;;5055058;28;20071;-80
2022/11/14 01:37:05;;;;;;;11.90;8.65;;;15.10;81.80;;;;;;5054943;28;20538;-80
2022/11/14 01:39:30;;;;;;;12.23;8.88;;;15.10;81.80;;;;;;5053063;28;20021;-82
2022/11/14 01:41:57;;;;;;;11.52;8.77;;;15.10;81.80;;;;;;5054666;28;20029;-79
2022/11/14 01:44:46;;;;;;;13.63;9.68;;;15.10;81.80;;;;;;5041932;28;20021;-80
2022/11/14 01:47:15;;;;;;;12.10;8.77;;;15.10;81.80;;;;;;5036165;28;20484;-79
2022/11/14 01:49:45;;;;;;;13.38;9.48;;;15.10;81.80;;;;;;5036494;28;20032;-79
2022/11/14 01:52:21;;;;;;;13.18;9.77;;;15.10;81.80;;;;;;5036227;28;20377;-79
2022/11/14 01:54:53;;;;;;;12.00;8.57;;;15.10;81.80;;;;;;5054343;28;20060;-79
2022/11/14 01:57:24;;;;;;;12.50;9.38;;;15.00;81.70;;;;;;5036255;28;20025;-80
2022/11/14 01:59:54;;;;;;;13.30;9.82;;;15.10;81.70;;;;;;5035829;28;20408;-79
2022/11/14 02:02:22;;;;;;;13.50;9.27;;;15.10;81.70;;;;;;5054087;28;20047;-79
2022/11/14 02:05:01;;;;;;;11.90;8.88;;;15.10;81.50;;;;;;5054204;28;20031;-80
2022/11/14 02:07:31;;;;;;;11.70;8.55;;;15.10;81.50;;;;;;5053907;28;20071;-80
2022/11/14 02:10:01;;;;;;;11.95;8.82;;;15.10;81.50;;;;;;5051011;28;20029;-80
2022/11/14 02:12:27;;;;;;;11.70;8.30;;;15.10;81.50;;;;;;5058775;28;20033;-80
2022/11/14 02:14:55;;;;;;;11.63;8.40;;;15.20;81.50;;;;;;5060079;28;20271;-79
2022/11/14 02:17:22;;;;;;;12.07;9.13;;;15.20;81.40;;;;;;5041160;28;20021;-80
2022/11/14 02:19:49;;;;;;;12.77;9.55;;;15.20;81.30;;;;;;5056718;28;20029;-80
2022/11/14 02:22:15;;;;;;;12.77;8.95;;;15.10;81.30;;;;;;5053450;28;20025;-80
2022/11/14 02:24:42;;;;;;;12.07;9.15;;;15.10;81.30;;;;;;5059532;28;20044;-79
2022/11/14 02:27:09;;;;;;;12.45;8.90;;;15.10;81.40;;;;;;5058893;28;20488;-79
2022/11/14 02:29:35;;;;;;;13.07;9.20;;;15.10;81.40;;;;;;5057757;28;20036;-79
2022/11/14 02:32:01;;;;;;;12.73;8.90;;;15.10;81.50;;;;;;5056707;28;20017;-79
2022/11/14 02:34:27;;;;;;;11.90;8.45;;;15.10;81.50;;;;;;5057135;28;20106;-80
2022/11/14 02:36:53;;;;;;;12.43;8.75;;;15.10;81.50;;;;;;5056481;28;20455;-80
2022/11/14 02:39:18;;;;;;;12.95;9.20;;;15.10;81.60;;;;;;5040100;28;20111;-79
2022/11/14 02:41:44;;;;;;;12.38;8.90;;;15.10;81.60;;;;;;5039597;28;20057;-80
2022/11/14 02:44:09;;;;;;;13.43;9.88;;;15.00;81.60;;;;;;5039722;28;20029;-78
2022/11/14 02:46:35;;;;;;;12.00;8.50;;;15.10;81.60;;;;;;5048207;28;20029;-79
2022/11/14 02:49:00;;;;;;;12.57;8.98;;;15.00;81.60;;;;;;5043412;28;20028;-78
2022/11/14 02:51:26;;;;;;;12.32;9.07;;;15.00;81.60;;;;;;5039456;28;20036;-79
2022/11/14 02:53:51;;;;;;;12.60;8.75;;;15.00;81.60;;;;;;5039358;28;20028;-79
2022/11/14 02:56:17;;;;;;;11.50;8.50;;;15.00;81.60;;;;;;5057370;28;20017;-80
2022/11/14 02:58:42;;;;;;;12.52;9.07;;;15.00;81.60;;;;;;5040139;28;20018;-79
2022/11/14 03:01:08;;;;;;;13.23;9.35;;;15.00;81.60;;;;;;5056409;28;20068;-77
2022/11/14 03:03:34;;;;;;;12.50;9.10;;;15.00;81.60;;;;;;5056526;28;20033;-80
2022/11/14 03:06:03;;;;;;;13.02;9.32;;;15.00;81.60;;;;;;5057226;28;20373;-79
2022/11/14 03:08:29;;;;;;;11.95;8.55;;;15.00;81.60;;;;;;5056874;28;20029;-78
2022/11/14 03:10:55;;;;;;;13.02;9.52;;;15.00;81.60;;;;;;5054812;28;20029;-80
2022/11/14 03:13:20;;;;;;;13.02;9.40;;;15.00;81.50;;;;;;5056786;28;20025;-82
2022/11/14 03:15:46;;;;;;;12.50;9.25;;;15.00;81.50;;;;;;5055316;28;20032;-80
2022/11/14 03:18:12;;;;;;;12.35;8.77;;;15.00;81.40;;;;;;5056145;28;20499;-81
2022/11/14 03:20:37;;;;;;;11.68;8.80;;;15.00;81.30;;;;;;5055825;28;20036;-82
2022/11/14 03:23:03;;;;;;;12.13;9.20;;;15.10;81.40;;;;;;5038525;28;20401;-82
2022/11/14 03:25:28;;;;;;;11.32;8.60;;;15.00;81.30;;;;;;5055789;28;20053;-82
2022/11/14 03:27:54;;;;;;;10.93;8.10;;;15.10;81.40;;;;;;5038481;28;20432;-82
2022/11/14 03:30:19;;;;;;;12.63;9.27;;;15.10;81.30;;;;;;5057426;28;20029;-82
2022/11/14 03:32:45;;;;;;;12.07;9.20;;;15.10;81.20;;;;;;5058795;28;20059;-82
2022/11/14 03:35:11;;;;;;;12.68;9.20;;;15.10;81.30;;;;;;5058085;28;20033;-82
2022/11/14 03:37:36;;;;;;;12.52;9.15;;;15.10;81.30;;;;;;5058020;28;20676;-82
2022/11/14 03:40:02;;;;;;;11.52;8.90;;;15.10;81.30;;;;;;5057529;28;20033;-82
2022/11/14 03:42:31;;;;;;;12.45;9.20;;;15.10;81.40;;;;;;5057670;28;20112;-81
2022/11/14 03:44:57;;;;;;;12.13;9.05;;;15.00;81.30;;;;;;5053490;28;20031;-81
2022/11/14 03:47:23;;;;;;;14.00;8.98;;;15.00;81.40;;;;;;5039178;28;20119;-81
2022/11/14 03:49:48;;;;;;;12.20;9.18;;;15.00;81.40;;;;;;5056611;28;20094;-81
2022/11/14 03:52:14;;;;;;;12.70;8.75;;;15.00;81.40;;;;;;5057120;28;20104;-81
2022/11/14 03:54:39;;;;;;;12.07;9.18;;;15.00;81.50;;;;;;5056650;28;20059;-80
2022/11/14 03:57:05;;;;;;;12.00;8.52;;;15.00;81.50;;;;;;5054990;28;20028;-82
2022/11/14 03:59:30;;;;;;;12.23;9.20;;;15.00;81.50;;;;;;5056237;28;20057;-81
2022/11/14 04:01:56;;;;;;;12.18;8.77;;;15.00;81.60;;;;;;5056598;28;20033;-81
2022/11/14 04:04:21;;;;;;;12.48;9.32;;;15.00;81.50;;;;;;5056259;28;20071;-81
2022/11/14 04:06:47;;;;;;;11.80;8.80;;;15.00;81.60;;;;;;5056063;28;20032;-80
2022/11/14 04:09:12;;;;;;;11.98;8.95;;;15.00;81.60;;;;;;5038050;28;20438;-81
2022/11/14 04:11:38;;;;;;;11.95;8.32;;;15.00;81.50;;;;;;5038195;28;20021;-81
2022/11/14 04:14:03;;;;;;;12.07;8.65;;;15.00;81.60;;;;;;5056578;28;20025;-82
2022/11/14 04:16:29;;;;;;;11.63;8.73;;;15.00;81.50;;;;;;5023013;28;20025;-82
2022/11/14 04:18:55;;;;;;;12.63;9.45;;;14.90;81.50;;;;;;5018458;28;20066;-81
2022/11/14 04:21:20;;;;;;;12.18;8.55;;;14.90;81.50;;;;;;5037287;28;20045;-82
2022/11/14 04:23:46;;;;;;;11.77;8.52;;;15.00;81.50;;;;;;5017772;28;20036;-82
2022/11/14 04:26:11;;;;;;;11.95;9.10;;;14.90;81.40;;;;;;5036070;28;20025;-82
2022/11/14 04:28:37;;;;;;;13.55;9.23;;;15.00;81.40;;;;;;5020545;28;20029;-82
2022/11/14 04:31:02;;;;;;;10.85;8.05;;;15.00;81.30;;;;;;5035120;28;20025;-81
2022/11/14 04:33:28;;;;;;;12.18;8.90;;;15.00;81.20;;;;;;5017376;28;20027;-80
2022/11/14 04:35:53;;;;;;;11.77;8.50;;;15.00;81.20;;;;;;5017168;28;20060;-78
2022/11/14 04:38:19;;;;;;;11.57;8.18;;;15.00;81.20;;;;;;5017381;28;20017;-80
2022/11/14 04:40:51;;;;;;;12.07;8.68;;;15.00;81.10;;;;;;5035869;28;20045;-82
2022/11/14 04:43:18;;;;;;;10.90;8.10;;;15.10;81.10;;;;;;5036734;28;20029;-82
2022/11/14 04:45:44;;;;;;;11.65;8.23;;;15.10;81.10;;;;;;5036921;28;20175;-82
2022/11/14 04:48:10;;;;;;;11.13;8.32;;;15.10;81.10;;;;;;5019300;28;20053;-82
2022/11/14 04:50:35;;;;;;;12.85;8.55;;;15.00;81.20;;;;;;5018443;28;20116;-82
2022/11/14 04:53:01;;;;;;;11.20;8.25;;;15.00;81.20;;;;;;5036518;28;20055;-81
2022/11/14 04:55:26;;;;;;;11.90;8.95;;;15.00;81.20;;;;;;5018584;28;20030;-81
2022/11/14 04:57:56;;;;;;;11.20;8.20;;;15.00;81.30;;;;;;5018840;28;20017;-81
2022/11/14 05:00:23;;;;;;;11.48;8.57;;;15.00;81.30;;;;;;5030868;28;20036;-80
2022/11/14 05:02:48;;;;;;;11.30;8.88;;;15.00;81.30;;;;;;5048198;28;20075;-79
2022/11/14 05:05:14;;;;;;;11.35;8.50;;;14.90;81.30;;;;;;5037554;28;20025;-79
2022/11/14 05:07:40;;;;;;;12.55;8.68;;;14.90;81.30;;;;;;5053659;28;20549;-79
2022/11/14 05:10:06;;;;;;;11.75;8.57;;;15.00;81.40;;;;;;5054824;28;20073;-79
2022/11/14 05:12:32;;;;;;;11.30;8.32;;;14.90;81.40;;;;;;5056057;28;20031;-79
2022/11/14 05:14:57;;;;;;;11.27;8.18;;;15.00;81.40;;;;;;5053935;28;20484;-79
2022/11/14 05:17:23;;;;;;;11.75;8.32;;;14.90;81.30;;;;;;5054025;28;20029;-78
2022/11/14 05:19:48;;;;;;;12.43;8.32;;;15.00;81.40;;;;;;5054360;28;20039;-81
2022/11/14 05:22:14;;;;;;;11.25;8.07;;;14.90;81.40;;;;;;5054187;28;20017;-79
2022/11/14 05:24:39;;;;;;;11.35;8.68;;;14.90;81.40;;;;;;5056469;28;20078;-80
2022/11/14 05:27:05;;;;;;;11.63;8.48;;;14.90;81.40;;;;;;5054939;28;20029;-80
2022/11/14 05:29:30;;;;;;;11.48;8.23;;;15.00;81.50;;;;;;5052104;28;20071;-77
2022/11/14 05:31:56;;;;;;;11.27;8.07;;;14.90;81.40;;;;;;5035273;28;20078;-79
2022/11/14 05:34:22;;;;;;;11.07;8.32;;;14.90;81.40;;;;;;5048840;28;20020;-79
2022/11/14 05:36:48;;;;;;;11.05;8.45;;;14.90;81.40;;;;;;5053015;28;20381;-77
2022/11/14 05:39:14;;;;;;;11.68;8.75;;;14.90;81.40;;;;;;5042178;28;20033;-82
2022/11/14 05:41:39;;;;;;;11.38;8.10;;;14.90;81.30;;;;;;5043367;28;20032;-81
2022/11/14 05:44:05;;;;;;;10.75;8.20;;;14.90;81.20;;;;;;5045952;28;20025;-81
2022/11/14 05:46:31;;;;;;;11.30;8.35;;;15.00;81.20;;;;;;5042242;28;20056;-80
2022/11/14 05:48:56;;;;;;;10.30;7.43;;;15.00;81.20;;;;;;5026284;28;20034;-78
2022/11/14 05:57:59;;;;;;;10.40;7.70;;;15.10;81.00;;;;;;5039378;28;20057;-80
2022/11/14 06:00:34;;;;;;;11.02;7.85;;;15.10;81.00;;;;;;5020937;28;20080;-78
2022/11/14 06:03:18;;;;;;;10.70;8.05;;;15.40;81.20;;;;;;5026682;28;20073;-83
2022/11/14 06:05:56;;;;;;;10.00;7.45;;;14.80;80.90;;;;;;5022938;28;20042;-79
2022/11/14 06:11:43;;;;;;;11.07;8.05;;;14.90;81.10;;;;;;5005193;28;20464;-83
2022/11/14 06:14:09;;;;;;;11.30;8.13;;;14.80;81.00;;;;;;5027906;28;20044;-82
2022/11/14 06:16:35;;;;;;;9.45;7.13;;;15.00;81.20;;;;;;5056591;28;20035;-79
2022/11/14 06:19:00;;;;;;;10.65;7.93;;;14.90;81.10;;;;;;5044551;28;20020;-81
2022/11/14 06:21:26;;;;;;;10.43;7.95;;;14.90;81.10;;;;;;5037244;28;20108;-79
2022/11/14 06:23:52;;;;;;;11.35;8.35;;;14.90;81.10;;;;;;5052288;28;20037;-78
2022/11/14 06:26:26;;;;;;;11.20;8.18;;;14.90;81.10;;;;;;5037195;28;20485;-75
2022/11/14 06:28:52;;;;;;;10.70;7.88;;;14.90;81.20;;;;;;5037657;28;20029;-78
2022/11/14 06:31:19;;;;;;;10.80;7.65;;;14.90;81.20;;;;;;5041024;28;20055;-76
2022/11/14 06:33:45;;;;;;;10.25;7.72;;;14.90;81.20;;;;;;5033326;28;20025;-78
2022/11/14 06:36:11;;;;;;;10.55;8.00;;;14.90;81.20;;;;;;5024399;28;20013;-78
2022/11/14 06:38:38;;;;;;;9.68;7.13;;;14.90;81.20;;;;;;5057162;28;20028;-77
2022/11/14 06:41:05;;;;;;;10.52;7.18;;;14.90;81.20;;;;;;5054668;28;20029;-76
2022/11/14 06:43:35;;;;;;;10.43;7.38;;;14.90;81.20;;;;;;5036425;28;20025;-79
2022/11/14 06:46:01;;;;;;;10.60;7.65;;;14.90;81.20;;;;;;5039979;28;20036;-80
2022/11/14 06:48:27;;;;;;;11.07;8.40;;;14.90;81.20;;;;;;5039620;28;20060;-77
2022/11/14 06:50:54;;;;;;;9.90;7.22;;;14.90;81.20;;;;;;5033098;28;20056;-77
2022/11/14 06:53:20;;;;;;;9.73;7.40;;;14.90;81.30;;;;;;5035043;28;20035;-75
2022/11/14 06:55:56;;;;;;;10.32;7.60;;;14.90;81.20;;;;;;5036128;28;20120;-77
2022/11/14 06:58:25;;;;;;;10.45;7.63;;;14.90;81.30;;;;;;5036520;28;20035;-75
2022/11/14 07:00:51;;;;;;;10.77;7.65;;;14.80;81.10;;;;;;5052448;28;20485;-75
2022/11/14 07:03:16;;;;;;;10.68;7.60;;;14.90;81.00;;;;;;5036535;28;20035;-77
2022/11/14 07:05:42;;;;;;;10.00;7.25;;;14.90;80.90;;;;;;5037459;28;20135;-77
2022/11/14 07:08:08;;;;;;;11.18;7.57;;;14.90;80.90;;;;;;5054607;28;20028;-79
2022/11/14 07:10:33;;;;;;;10.18;7.35;;;15.00;80.70;;;;;;5036335;28;20045;-80
2022/11/14 07:12:59;;;;;;;10.45;7.22;;;14.90;80.60;;;;;;5038293;28;20024;-79
2022/11/14 07:15:24;;;;;;;10.77;7.75;;;15.00;80.70;;;;;;5049981;28;20028;-80
2022/11/14 07:17:50;;;;;;;9.75;7.20;;;14.90;81.20;;;;;;5056655;28;20104;-80
2022/11/14 07:20:17;;;;;;;10.95;7.78;;;14.90;80.70;;;;;;5057472;28;20037;-80
2022/11/14 07:22:45;;;;;;;11.10;7.60;;;14.90;80.80;;;;;;5055014;28;20074;-79
2022/11/14 07:25:11;;;;;;;11.57;8.73;;;14.90;80.70;;;;;;5052793;28;20036;-78
2022/11/14 07:27:36;;;;;;;12.48;8.95;;;14.90;79.10;;;;;;5054004;28;20036;-79
2022/11/14 07:30:02;;;;;;;16.20;12.35;;;14.90;77.90;;;;;;5053813;28;20442;-79
2022/11/14 07:32:28;;;;;;;27.35;13.90;;;14.80;69.60;;;;;;5054762;28;20053;-79
2022/11/14 07:34:54;;;;;;;17.65;12.88;;;14.40;61.80;;;;;;5055337;28;20025;-78
2022/11/14 07:37:19;;;;;;;17.58;12.70;;;13.90;61.10;;;;;;5055257;28;20017;-79
2022/11/14 07:39:45;;;;;;;16.05;12.68;;;13.60;60.90;;;;;;5055254;28;20380;-80
2022/11/14 07:42:10;;;;;;;14.80;11.75;;;13.40;61.20;;;;;;5055771;28;20024;-80
2022/11/14 07:44:36;;;;;;;16.98;12.68;;;13.20;61.30;;;;;;5054278;28;20017;-78
2022/11/14 07:47:01;;;;;;;15.65;11.98;;;13.00;61.30;;;;;;5056344;28;20527;-79
2022/11/14 07:49:27;;;;;;;16.15;12.50;;;12.70;61.80;;;;;;5057069;28;20136;-77
2022/11/14 07:51:53;;;;;;;16.77;12.15;;;12.90;63.70;;;;;;5054156;28;20032;-79
2022/11/14 07:54:18;;;;;;;14.90;11.88;;;13.20;63.90;;;;;;5053763;28;20021;-80
2022/11/14 07:56:43;;;;;;;15.80;11.88;;;13.60;64.00;;;;;;5055408;28;20099;-80
2022/11/14 07:59:09;;;;;;;14.55;11.40;;;13.80;66.00;;;;;;5055928;28;20048;-79
2022/11/14 08:01:34;;;;;;;13.63;10.68;;;14.00;65.30;;;;;;5056307;28;20033;-80
2022/11/14 08:04:00;;;;;;;14.60;10.68;;;14.20;65.40;;;;;;5055057;28;20493;-79
2022/11/14 08:06:26;;;;;;;14.38;10.80;;;14.30;65.10;;;;;;5054339;28;20056;-78
2022/11/14 08:08:51;;;;;;;13.05;10.45;;;14.50;65.50;;;;;;5052804;28;20025;-77
2022/11/14 08:11:46;;;;;;;14.30;11.18;;;14.50;66.20;;;;;;5052833;28;20021;-79
2022/11/14 08:14:02;;;;;;;14.90;11.25;;;14.60;66.80;;;;;;5053818;28;20021;-78
2022/11/14 08:16:28;;;;;;;13.63;10.68;;;14.80;67.10;;;;;;5051591;28;20480;-78
2022/11/14 08:18:53;;;;;;;12.75;10.20;;;14.80;67.20;;;;;;5052529;28;20031;-80
2022/11/14 08:21:19;;;;;;;14.13;10.48;;;14.90;67.40;;;;;;5051529;28;20431;-79
2022/11/14 08:23:44;;;;;;;12.57;9.85;;;15.00;67.60;;;;;;5052455;28;20115;-81
2022/11/14 08:26:10;;;;;;;13.50;10.13;;;15.10;67.80;;;;;;5055623;28;20086;-81
2022/11/14 08:28:36;;;;;;;13.63;10.15;;;15.10;67.80;;;;;;5056597;28;20025;-79
2022/11/14 08:31:03;;;;;;;13.25;10.20;;;15.20;68.10;;;;;;5052870;28;20079;-78
2022/11/14 08:33:29;;;;;;;13.18;10.57;;;15.20;68.50;;;;;;5052579;28;20104;-77
2022/11/14 08:35:55;;;;;;;13.77;10.50;;;15.20;68.80;;;;;;5051087;28;20058;-79
2022/11/14 08:38:20;;;;;;;12.10;9.57;;;15.30;69.00;;;;;;5053037;28;20509;-82
2022/11/14 08:40:46;;;;;;;13.38;9.98;;;15.20;68.90;;;;;;5052848;28;20516;-79
2022/11/14 08:43:11;;;;;;;13.20;9.98;;;15.30;69.60;;;;;;5052127;28;20032;-81
2022/11/14 08:45:37;;;;;;;12.32;9.57;;;15.30;69.90;;;;;;5055897;28;20056;-83
2022/11/14 08:48:02;;;;;;;11.38;9.35;;;15.40;69.80;;;;;;5056476;28;20033;-80
2022/11/14 08:50:28;;;;;;;12.90;9.63;;;15.40;70.20;;;;;;5054483;28;20552;-80
2022/11/14 08:52:53;;;;;;;12.48;9.40;;;15.40;70.10;;;;;;5055201;28;20389;-82
2022/11/14 08:55:19;;;;;;;12.23;9.38;;;15.40;70.50;;;;;;5046658;28;20025;-79
2022/11/14 08:57:46;;;;;;;11.40;8.82;;;15.40;70.70;;;;;;5046653;28;20358;-77
2022/11/14 09:00:11;;;;;;;11.30;8.90;;;15.50;70.80;;;;;;5046381;28;20056;-76
2022/11/14 09:02:37;;;;;;;11.40;9.07;;;15.50;71.10;;;;;;5046559;28;20029;-77
2022/11/14 09:05:03;;;;;;;11.40;8.75;;;15.50;71.10;;;;;;5045058;28;20124;-76
2022/11/14 09:07:28;;;;;;;11.30;8.73;;;15.50;71.00;;;;;;5044919;28;20408;-77
2022/11/14 09:09:54;;;;;;;10.50;8.27;;;15.60;71.10;;;;;;5044327;28;20029;-81
2022/11/14 09:12:19;;;;;;;10.43;8.20;;;15.60;71.10;;;;;;5045283;28;20024;-79
2022/11/14 09:14:45;;;;;;;12.45;9.07;;;15.60;71.10;;;;;;5045256;28;20029;-77
2022/11/14 09:17:10;;;;;;;10.60;8.10;;;15.60;71.00;;;;;;5046378;28;20048;-80
2022/11/14 09:19:36;;;;;;;11.27;8.60;;;15.70;71.30;;;;;;5044787;28;20078;-78
2022/11/14 09:22:01;;;;;;;10.77;8.25;;;15.70;71.40;;;;;;5044928;28;20077;-78
2022/11/14 09:24:27;;;;;;;11.60;8.98;;;15.70;71.50;;;;;;5044703;28;20501;-78
2022/11/14 09:26:52;;;;;;;11.15;8.57;;;15.80;71.60;;;;;;5045970;28;20145;-77
2022/11/14 09:29:18;;;;;;;10.85;8.27;;;15.80;71.60;;;;;;5044547;28;20028;-83
2022/11/14 09:31:44;;;;;;;10.27;7.97;;;15.80;72.20;;;;;;5044948;28;20021;-77
2022/11/14 09:34:10;;;;;;;10.40;8.15;;;15.90;72.30;;;;;;5044793;28;20036;-81
2022/11/14 09:36:35;;;;;;;10.45;7.80;;;15.90;72.30;;;;;;5046193;28;20065;-85
2022/11/14 09:39:01;;;;;;;9.98;7.43;;;15.90;72.20;;;;;;5045104;28;20021;-81
2022/11/14 09:41:48;;;;;;;10.30;7.72;;;16.00;72.20;;;;;;5045406;28;20075;-78
2022/11/14 09:44:31;;;;;;;10.55;7.78;;;16.00;72.00;;;;;;5045607;28;20068;-83
2022/11/14 09:47:09;;;;;;;10.27;7.60;;;16.00;71.80;;;;;;5044983;28;20124;-82
2022/11/14 09:49:41;;;;;;;10.55;8.13;;;16.10;71.80;;;;;;5044914;28;20403;-78
2022/11/14 09:52:35;;;;;;;9.93;7.43;;;16.10;71.60;;;;;;5046389;28;20048;-78
2022/11/14 09:55:10;;;;;;;10.73;7.88;;;16.10;71.70;;;;;;5046416;28;20053;-76
2022/11/14 09:57:36;;;;;;;9.60;7.18;;;16.10;71.70;;;;;;5044867;28;20515;-78
2022/11/14 10:00:05;;;;;;;10.68;7.50;;;16.10;71.80;;;;;;5045564;28;20057;-80
2022/11/14 10:02:33;;;;;;;9.90;7.22;;;16.10;71.80;;;;;;5045067;28;20237;-79
2022/11/14 10:05:35;;;;;;;9.77;7.22;;;16.10;71.90;;;;;;5044710;28;20040;-83
2022/11/14 10:08:32;;;;;;;9.90;7.75;;;16.10;72.00;;;;;;5044781;28;20021;-79
2022/11/14 10:11:12;;;;;;;9.75;7.47;;;16.10;72.10;;;;;;5043961;28;20524;-81
2022/11/14 10:14:12;;;;;;;9.00;6.70;;;16.10;72.10;;;;;;5045898;28;20047;-79
2022/11/14 10:17:13;;;;;;;;;;;16.20;72.30;;;;;;5045249;28;20444;-80
2022/11/14 10:19:58;;;;;;;8.90;6.50;;;16.20;72.30;;;;;;4982736;28;19920;-78
2022/11/14 10:22:30;;;;;;;11.88;6.97;;;16.30;72.30;;;;;;5040585;28;20255;-83
2022/11/14 10:24:58;;;;;;;9.70;7.20;;;16.20;72.30;;;;;;5045411;28;20374;-80
2022/11/14 10:27:32;;;;;;;9.52;6.80;;;16.30;72.60;;;;;;5047579;28;20108;-78
2022/11/14 10:30:17;;;;;;;9.25;6.97;;;16.30;72.50;;;;;;5031235;28;20040;-79
2022/11/14 10:33:22;;;;;;;9.27;6.60;;;16.30;73.00;;;;;;5031555;28;20029;-78
2022/11/14 10:36:03;;;;;;;9.07;6.63;;;16.30;72.30;;;;;;5049674;28;20033;-76
2022/11/14 10:38:37;;;;;;;8.43;5.82;;;16.30;72.30;;;;;;5048059;28;20056;-76
2022/11/14 10:41:05;;;;;;;8.70;6.43;;;16.30;72.40;;;;;;5031228;28;20040;-78
2022/11/14 10:43:42;;;;;;;9.38;6.63;;;16.30;72.50;;;;;;5031369;28;20124;-76
2022/11/14 10:46:38;;;;;;;8.73;6.35;;;16.40;72.30;;;;;;5049214;28;20090;-76
2022/11/14 10:49:16;;;;;;;8.68;6.28;;;16.40;72.30;;;;;;5031881;28;20032;-76
2022/11/14 10:51:46;;;;;;;9.48;6.68;;;16.40;72.60;;;;;;5030827;28;20562;-75
2022/11/14 10:54:37;;;;;;;8.75;6.22;;;16.50;72.40;;;;;;5048421;28;20037;-77
2022/11/14 10:57:02;;;;;;;8.82;6.53;;;16.50;72.00;;;;;;5028812;28;20035;-75
2022/11/14 10:59:28;;;;;;;8.18;5.90;;;16.60;72.30;;;;;;5044416;28;20017;-74
2022/11/14 11:01:56;;;;;;;7.82;5.78;;;16.60;72.60;;;;;;5047609;28;20039;-76
2022/11/14 11:04:31;;;;;;;8.27;5.93;;;16.60;72.40;;;;;;5030114;28;20808;-77
2022/11/14 11:07:06;;;;;;;8.18;5.85;;;16.60;72.20;;;;;;5048076;28;20082;-74
2022/11/14 11:12:24;;;;;;;9.55;6.32;;;16.50;72.20;;;;;;5048209;28;20917;-77
2022/11/14 11:15:29;;;;;;;9.07;6.43;;;16.50;72.20;;;;;;5061795;28;20066;-76
2022/11/14 11:17:55;;;;;;;8.30;5.60;;;16.60;72.40;;;;;;5030363;28;20404;-76
2022/11/14 11:20:33;;;;;;;8.43;6.10;;;16.50;72.30;;;;;;5047441;28;20025;-76
2022/11/14 11:23:10;;;;;;;8.32;6.05;;;16.60;72.40;;;;;;5047031;28;20503;-75
2022/11/14 11:25:38;;;;;;;8.88;6.30;;;16.60;72.30;;;;;;5047843;28;20083;-74
2022/11/14 11:28:18;;;;;;;8.85;6.10;;;16.60;72.30;;;;;;5050000;28;20053;-75
2022/11/14 11:31:01;;;;;;;8.13;6.10;;;16.60;72.40;;;;;;5066971;28;20101;-77
2022/11/14 11:33:38;;;;;;;8.15;5.75;;;16.60;72.40;;;;;;5064134;28;20080;-75
2022/11/14 11:36:20;;;;;;;8.10;5.80;;;16.60;72.40;;;;;;5028860;28;20216;-75
2022/11/14 11:38:46;;;;;;;8.07;5.70;;;16.60;72.50;;;;;;5028761;28;20021;-79
2022/11/14 11:41:33;;;;;;;8.38;6.07;;;16.60;72.40;;;;;;5029495;28;20083;-79
2022/11/14 11:44:09;;;;;;;7.93;5.78;;;16.60;72.40;;;;;;5032440;28;20200;-82
2022/11/14 11:46:58;;;;;;;7.53;5.38;;;16.60;72.50;;;;;;5056558;28;20033;-82
2022/11/14 11:49:33;;;;;;;7.32;5.15;;;16.60;72.50;;;;;;5038285;28;20032;-81
2022/11/14 11:52:21;;;;;;;7.35;5.35;;;16.60;72.50;;;;;;5037520;28;20081;-82
2022/11/14 11:54:54;;;;;;;8.10;5.60;;;16.60;72.50;;;;;;5054972;28;20082;-87
2022/11/14 11:57:29;;;;;;;8.75;6.25;;;16.70;72.80;;;;;;5038452;28;20583;-83
2022/11/14 12:00:04;;;;;;;8.73;6.22;;;16.60;73.50;;;;;;5032723;28;20112;-82
2022/11/14 12:02:29;;;;;;;7.88;5.80;;;16.60;73.90;;;;;;5030064;28;20174;-78
2022/11/14 12:04:56;;;;;;;7.60;5.50;;;16.70;73.30;;;;;;5032176;28;20115;-78
2022/11/14 12:07:38;;;;;;;7.85;5.72;;;16.60;72.70;;;;;;5033980;28;20025;-78
2022/11/14 12:10:21;;;;;;;7.90;5.40;;;16.70;72.50;;;;;;5050180;28;20017;-81
2022/11/14 12:12:49;;;;;;;8.23;5.95;;;16.70;72.40;;;;;;5049472;28;20119;-79
2022/11/14 12:15:43;;;;;;;8.77;5.88;;;16.60;72.50;;;;;;5031613;28;20617;-79
2022/11/14 12:18:39;;;;;;;7.70;5.53;;;16.70;72.30;;;;;;5030976;28;20029;-78
2022/11/14 12:21:25;;;;;;;8.02;5.70;;;16.60;72.60;;;;;;5031171;28;20060;-82
2022/11/14 12:24:04;;;;;;;7.38;5.10;;;16.60;72.90;;;;;;5030721;28;20036;-77
2022/11/14 12:26:47;;;;;;;7.25;5.40;;;16.60;72.70;;;;;;5031279;28;20033;-78
2022/11/14 12:29:38;;;;;;;8.25;5.85;;;16.50;72.80;;;;;;5030182;28;20090;-84
2022/11/14 12:32:10;;;;;;;7.80;5.65;;;16.60;73.00;;;;;;5029808;28;20195;-80
2022/11/14 12:34:40;;;;;;;7.97;5.90;;;16.50;72.90;;;;;;5030307;28;20036;-80
2022/11/14 12:37:31;;;;;;;8.23;5.80;;;16.50;73.10;;;;;;5030201;28;20120;-77
2022/11/14 12:40:00;;;;;;;7.93;5.68;;;16.50;73.10;;;;;;5030694;28;20078;-80
2022/11/14 12:42:26;;;;;;;7.93;5.28;;;16.50;73.30;;;;;;5029449;28;20087;-81
2022/11/14 12:44:52;;;;;;;7.78;5.90;;;16.40;73.50;;;;;;5030481;28;20495;-79
2022/11/14 12:47:20;;;;;;;7.63;5.25;;;16.50;73.90;;;;;;5029519;28;20025;-81
2022/11/14 12:49:51;;;;;;;7.75;5.43;;;16.50;74.50;;;;;;5029769;28;20511;-78
2022/11/14 12:52:35;;;;;;;;;;;16.50;74.00;;;;;;5030927;28;20032;-78
2022/11/14 12:55:01;;;;;;;7.35;5.18;;;16.50;73.80;;;;;;5030316;28;19962;-79
2022/11/14 12:57:50;;;;;;;7.70;5.38;;;16.40;74.00;;;;;;5029820;28;20032;-79
2022/11/14 13:00:17;;;;;;;7.35;5.38;;;16.40;75.10;;;;;;5029252;28;20029;-79
2022/11/14 13:03:13;;;;;;;7.25;5.13;;;16.40;74.60;;;;;;5029390;28;20037;-80